Terminal Aerodrome Forecast
Issued by NWS Dodge City, KS

Home | Current Version | Previous Version | Text Only | Print | Product List | Glossary On
Versions: 1 2 3 4 5 6 7 8 9 10 11 12 13 14
000
FTUS43 KDDC 130500
TAFDDC
TAF
KDDC 130520Z 1306/1406 36010KT P6SM FEW100
     FM131300 36012G20KT P6SM BKN025 OVC100
     FM131700 01025G35KT P6SM OVC012=

USA.gov is the U.S. government's official web portal to all federal, state and local government web resources and services.